sensor_id;sensor_type;location;lat;lon;timestamp;pressure;altitude;pressure_sealevel;temperature;humidity
84136;BME280;74238;50.566;7.262;2023-12-22T00:01:03;99611.91;;;5.52;87.49
84136;BME280;74238;50.566;7.262;2023-12-22T00:03:28;99628.31;;;5.69;87.83
84136;BME280;74238;50.566;7.262;2023-12-22T00:05:53;99631.91;;;5.62;87.04
84136;BME280;74238;50.566;7.262;2023-12-22T00:08:19;99587.53;;;5.47;87.40
84136;BME280;74238;50.566;7.262;2023-12-22T00:10:44;99644.84;;;5.74;87.74
84136;BME280;74238;50.566;7.262;2023-12-22T00:13:09;99585.78;;;5.47;87.38
84136;BME280;74238;50.566;7.262;2023-12-22T00:15:35;99644.78;;;5.82;86.36
84136;BME280;74238;50.566;7.262;2023-12-22T00:18:00;99594.34;;;5.63;86.05
84136;BME280;74238;50.566;7.262;2023-12-22T00:20:25;99592.25;;;5.97;84.15
84136;BME280;74238;50.566;7.262;2023-12-22T00:22:51;99582.75;;;5.84;82.64
84136;BME280;74238;50.566;7.262;2023-12-22T00:25:16;99623.47;;;6.14;81.25
84136;BME280;74238;50.566;7.262;2023-12-22T00:27:41;99626.03;;;6.19;81.24
84136;BME280;74238;50.566;7.262;2023-12-22T00:30:07;99639.13;;;6.20;81.43
84136;BME280;74238;50.566;7.262;2023-12-22T00:32:32;99595.78;;;5.95;81.45
84136;BME280;74238;50.566;7.262;2023-12-22T00:34:58;99656.56;;;6.23;80.69
84136;BME280;74238;50.566;7.262;2023-12-22T00:37:23;99717.06;;;6.02;81.27
84136;BME280;74238;50.566;7.262;2023-12-22T00:39:49;99605.25;;;5.20;81.15
84136;BME280;74238;50.566;7.262;2023-12-22T00:42:14;99695.66;;;5.55;82.45
84136;BME280;74238;50.566;7.262;2023-12-22T00:44:39;99706.38;;;5.27;82.68
84136;BME280;74238;50.566;7.262;2023-12-22T00:47:05;99733.56;;;5.05;84.28
84136;BME280;74238;50.566;7.262;2023-12-22T00:49:30;99730.22;;;4.78;85.20
84136;BME280;74238;50.566;7.262;2023-12-22T00:51:56;99736.38;;;4.66;85.38
84136;BME280;74238;50.566;7.262;2023-12-22T00:54:23;99756.44;;;4.64;85.48
84136;BME280;74238;50.566;7.262;2023-12-22T00:56:50;99770.44;;;4.51;86.47
84136;BME280;74238;50.566;7.262;2023-12-22T00:59:15;99750.44;;;4.36;87.02
84136;BME280;74238;50.566;7.262;2023-12-22T01:01:41;99691.34;;;4.05;87.33
84136;BME280;74238;50.566;7.262;2023-12-22T01:04:06;99696.50;;;4.21;87.43
84136;BME280;74238;50.566;7.262;2023-12-22T01:06:31;99755.66;;;4.46;87.71
84136;BME280;74238;50.566;7.262;2023-12-22T01:08:57;99686.97;;;4.08;87.76
84136;BME280;74238;50.566;7.262;2023-12-22T01:11:22;99701.72;;;4.20;87.53
84136;BME280;74238;50.566;7.262;2023-12-22T01:13:47;99749.56;;;4.40;87.46
84136;BME280;74238;50.566;7.262;2023-12-22T01:16:12;99729.53;;;4.33;87.65
84136;BME280;74238;50.566;7.262;2023-12-22T01:18:38;99759.97;;;4.45;87.46
84136;BME280;74238;50.566;7.262;2023-12-22T01:21:07;99741.72;;;4.36;88.33
84136;BME280;74238;50.566;7.262;2023-12-22T01:23:32;99704.34;;;4.21;88.35
84136;BME280;74238;50.566;7.262;2023-12-22T01:25:58;99726.06;;;4.37;87.58
84136;BME280;74238;50.566;7.262;2023-12-22T01:28:23;99738.19;;;4.48;88.55
84136;BME280;74238;50.566;7.262;2023-12-22T01:30:49;99679.13;;;4.13;88.39
84136;BME280;74238;50.566;7.262;2023-12-22T01:33:14;99730.38;;;4.46;88.40
84136;BME280;74238;50.566;7.262;2023-12-22T01:35:39;99687.81;;;4.15;87.93
84136;BME280;74238;50.566;7.262;2023-12-22T01:38:05;99752.19;;;4.37;88.22
84136;BME280;74238;50.566;7.262;2023-12-22T01:40:30;99750.44;;;4.46;88.27
84136;BME280;74238;50.566;7.262;2023-12-22T01:42:55;99748.72;;;4.40;88.51
84136;BME280;74238;50.566;7.262;2023-12-22T01:45:21;99722.63;;;4.25;88.02
84136;BME280;74238;50.566;7.262;2023-12-22T01:47:47;99717.34;;;4.34;88.10
84136;BME280;74238;50.566;7.262;2023-12-22T01:50:13;99767.78;;;4.65;88.85
84136;BME280;74238;50.566;7.262;2023-12-22T01:52:41;99722.56;;;4.37;88.05
84136;BME280;74238;50.566;7.262;2023-12-22T01:55:09;99742.53;;;4.56;88.58
84136;BME280;74238;50.566;7.262;2023-12-22T01:57:35;99740.75;;;4.64;87.77
84136;BME280;74238;50.566;7.262;2023-12-22T02:00:01;99749.47;;;4.70;87.81
84136;BME280;74238;50.566;7.262;2023-12-22T02:02:27;99694.72;;;4.34;88.68
84136;BME280;74238;50.566;7.262;2023-12-22T02:04:53;99716.38;;;4.58;89.05
84136;BME280;74238;50.566;7.262;2023-12-22T02:07:19;99696.41;;;4.46;88.86
84136;BME280;74238;50.566;7.262;2023-12-22T02:09:44;99723.28;;;4.73;88.92
84136;BME280;74238;50.566;7.262;2023-12-22T02:12:10;99710.28;;;4.59;88.44
84136;BME280;74238;50.566;7.262;2023-12-22T02:14:35;99745.03;;;4.75;88.78
84136;BME280;74238;50.566;7.262;2023-12-22T02:17:08;99720.72;;;4.63;88.17
84136;BME280;74238;50.566;7.262;2023-12-22T02:19:43;99745.03;;;4.75;88.83
84136;BME280;74238;50.566;7.262;2023-12-22T02:22:10;99755.50;;;4.76;89.13
84136;BME280;74238;50.566;7.262;2023-12-22T02:24:36;99698.97;;;4.52;88.37
84136;BME280;74238;50.566;7.262;2023-12-22T02:29:59;99745.03;;;4.79;88.16
84136;BME280;74238;50.566;7.262;2023-12-22T02:32:35;99686.84;;;4.39;88.72
84136;BME280;74238;50.566;7.262;2023-12-22T02:35:05;99738.97;;;4.71;89.12
84136;BME280;74238;50.566;7.262;2023-12-22T02:37:32;99755.53;;;4.78;88.41
84136;BME280;74238;50.566;7.262;2023-12-22T02:40:00;99752.03;;;4.76;88.51
84136;BME280;74238;50.566;7.262;2023-12-22T02:42:26;99765.09;;;4.79;89.25
84136;BME280;74238;50.566;7.262;2023-12-22T02:44:58;99700.75;;;4.44;89.15
84136;BME280;74238;50.566;7.262;2023-12-22T02:47:24;99718.16;;;4.54;88.48
84136;BME280;74238;50.566;7.262;2023-12-22T02:49:49;99698.13;;;4.52;88.96
84136;BME280;74238;50.566;7.262;2023-12-22T02:52:15;99757.22;;;4.82;89.03
84136;BME280;74238;50.566;7.262;2023-12-22T02:54:40;99754.63;;;4.82;89.06
84136;BME280;74238;50.566;7.262;2023-12-22T02:57:09;99725.94;;;4.65;88.88
84136;BME280;74238;50.566;7.262;2023-12-22T02:59:34;99746.78;;;4.79;89.17
84136;BME280;74238;50.566;7.262;2023-12-22T03:01:59;99740.66;;;4.86;88.27
84136;BME280;74238;50.566;7.262;2023-12-22T03:04:25;99746.72;;;4.88;88.31
84136;BME280;74238;50.566;7.262;2023-12-22T03:06:51;99742.34;;;4.88;89.08
84136;BME280;74238;50.566;7.262;2023-12-22T03:09:16;99719.72;;;4.87;89.35
84136;BME280;74238;50.566;7.262;2023-12-22T03:11:41;99671.00;;;4.66;88.80
84136;BME280;74238;50.566;7.262;2023-12-22T03:14:07;99724.84;;;5.01;89.35
84136;BME280;74238;50.566;7.262;2023-12-22T03:16:32;99737.00;;;5.11;87.98
84136;BME280;74238;50.566;7.262;2023-12-22T03:18:58;99693.47;;;5.01;88.48
84136;BME280;74238;50.566;7.262;2023-12-22T03:21:23;99745.56;;;5.35;86.95
84136;BME280;74238;50.566;7.262;2023-12-22T03:23:48;99744.59;;;5.47;87.26
84136;BME280;74238;50.566;7.262;2023-12-22T03:26:14;99685.44;;;5.26;87.44
84136;BME280;74238;50.566;7.262;2023-12-22T03:28:39;99712.25;;;5.55;86.97
84136;BME280;74238;50.566;7.262;2023-12-22T03:31:04;99677.38;;;5.50;86.46
84136;BME280;74238;50.566;7.262;2023-12-22T03:33:32;99660.00;;;5.43;86.43
84136;BME280;74238;50.566;7.262;2023-12-22T03:35:57;99729.44;;;5.84;86.67
84136;BME280;74238;50.566;7.262;2023-12-22T03:38:22;99718.03;;;5.90;85.89
84136;BME280;74238;50.566;7.262;2023-12-22T03:40:47;99703.19;;;5.90;86.49
84136;BME280;74238;50.566;7.262;2023-12-22T03:43:13;99691.91;;;5.82;86.44
84136;BME280;74238;50.566;7.262;2023-12-22T03:45:38;99724.91;;;6.05;86.46
84136;BME280;74238;50.566;7.262;2023-12-22T03:48:04;99706.66;;;5.94;85.52
84136;BME280;74238;50.566;7.262;2023-12-22T03:50:29;99745.78;;;6.12;85.56
84136;BME280;74238;50.566;7.262;2023-12-22T03:52:54;99741.38;;;6.16;85.05
84136;BME280;74238;50.566;7.262;2023-12-22T03:55:20;99731.78;;;6.13;85.00
84136;BME280;74238;50.566;7.262;2023-12-22T03:57:45;99750.94;;;6.20;84.71
84136;BME280;74238;50.566;7.262;2023-12-22T04:00:11;99697.88;;;5.99;84.92
84136;BME280;74238;50.566;7.262;2023-12-22T04:02:36;99753.44;;;6.32;84.14
84136;BME280;74238;50.566;7.262;2023-12-22T04:05:01;99699.56;;;6.07;84.60
84136;BME280;74238;50.566;7.262;2023-12-22T04:07:27;99688.25;;;6.03;84.57
84136;BME280;74238;50.566;7.262;2023-12-22T04:09:53;99696.16;;;5.98;83.78
84136;BME280;74238;50.566;7.262;2023-12-22T04:12:18;99782.19;;;6.40;83.21
84136;BME280;74238;50.566;7.262;2023-12-22T04:14:43;99710.81;;;6.15;82.46
84136;BME280;74238;50.566;7.262;2023-12-22T04:17:10;99759.38;;;6.48;82.26
84136;BME280;74238;50.566;7.262;2023-12-22T04:19:36;99757.72;;;6.41;82.18
84136;BME280;74238;50.566;7.262;2023-12-22T04:22:01;99770.75;;;6.46;79.44
84136;BME280;74238;50.566;7.262;2023-12-22T04:24:26;99770.00;;;6.36;80.60
84136;BME280;74238;50.566;7.262;2023-12-22T04:26:52;99755.31;;;6.21;80.23
84136;BME280;74238;50.566;7.262;2023-12-22T04:29:17;99767.50;;;6.25;80.73
84136;BME280;74238;50.566;7.262;2023-12-22T04:31:42;99793.69;;;6.28;80.93
84136;BME280;74238;50.566;7.262;2023-12-22T04:34:07;99796.38;;;6.22;81.42
84136;BME280;74238;50.566;7.262;2023-12-22T04:36:33;99791.16;;;6.17;81.48
84136;BME280;74238;50.566;7.262;2023-12-22T04:38:58;99776.41;;;6.09;81.23
84136;BME280;74238;50.566;7.262;2023-12-22T04:41:23;99786.00;;;6.10;81.92
84136;BME280;74238;50.566;7.262;2023-12-22T04:43:49;99777.28;;;6.08;82.39
84136;BME280;74238;50.566;7.262;2023-12-22T04:46:14;99733.03;;;5.74;82.38
84136;BME280;74238;50.566;7.262;2023-12-22T04:48:40;99728.63;;;5.77;81.63
84136;BME280;74238;50.566;7.262;2023-12-22T04:51:05;99767.78;;;5.97;82.62
84136;BME280;74238;50.566;7.262;2023-12-22T04:53:30;99764.31;;;5.92;82.90
84136;BME280;74238;50.566;7.262;2023-12-22T04:55:55;99754.78;;;5.84;83.30
84136;BME280;74238;50.566;7.262;2023-12-22T04:58:21;99740.88;;;5.74;83.51
84136;BME280;74238;50.566;7.262;2023-12-22T05:00:47;99731.44;;;5.58;83.06
84136;BME280;74238;50.566;7.262;2023-12-22T05:03:13;99767.81;;;5.88;82.79
84136;BME280;74238;50.566;7.262;2023-12-22T05:05:38;99734.88;;;5.63;83.22
84136;BME280;74238;50.566;7.262;2023-12-22T05:08:04;99780.06;;;5.89;84.09
84136;BME280;74238;50.566;7.262;2023-12-22T05:10:29;99761.84;;;5.75;83.89
84136;BME280;74238;50.566;7.262;2023-12-22T05:12:54;99788.75;;;5.93;84.16
84136;BME280;74238;50.566;7.262;2023-12-22T05:15:20;99738.38;;;5.62;83.99
84136;BME280;74238;50.566;7.262;2023-12-22T05:17:45;99716.63;;;5.53;83.38
84136;BME280;74238;50.566;7.262;2023-12-22T05:20:10;99798.22;;;6.08;83.74
84136;BME280;74238;50.566;7.262;2023-12-22T05:22:36;99801.66;;;6.16;83.38
84136;BME280;74238;50.566;7.262;2023-12-22T05:25:02;99784.19;;;6.13;83.84
84136;BME280;74238;50.566;7.262;2023-12-22T05:27:27;99804.09;;;6.34;82.82
84136;BME280;74238;50.566;7.262;2023-12-22T05:29:52;99749.22;;;6.16;82.77
84136;BME280;74238;50.566;7.262;2023-12-22T05:32:18;99779.59;;;6.37;83.55
84136;BME280;74238;50.566;7.262;2023-12-22T05:34:43;99798.59;;;6.59;82.59
84136;BME280;74238;50.566;7.262;2023-12-22T05:37:08;99822.16;;;6.63;82.95
84136;BME280;74238;50.566;7.262;2023-12-22T05:39:33;99807.28;;;6.64;82.44
84136;BME280;74238;50.566;7.262;2023-12-22T05:41:59;99806.38;;;6.66;83.17
84136;BME280;74238;50.566;7.262;2023-12-22T05:44:24;99764.78;;;6.36;82.54
84136;BME280;74238;50.566;7.262;2023-12-22T05:46:54;99785.59;;;6.50;82.94
84136;BME280;74238;50.566;7.262;2023-12-22T05:49:19;99813.28;;;6.74;82.20
84136;BME280;74238;50.566;7.262;2023-12-22T05:51:45;99812.31;;;6.82;80.55
84136;BME280;74238;50.566;7.262;2023-12-22T05:54:11;99827.97;;;6.88;81.27
84136;BME280;74238;50.566;7.262;2023-12-22T05:56:36;99766.13;;;6.69;81.20
84136;BME280;74238;50.566;7.262;2023-12-22T05:59:02;99778.19;;;6.81;79.40
84136;BME280;74238;50.566;7.262;2023-12-22T06:01:28;99751.25;;;6.70;79.98
84136;BME280;74238;50.566;7.262;2023-12-22T06:03:53;99800.63;;;7.05;79.88
84136;BME280;74238;50.566;7.262;2023-12-22T06:06:20;99789.28;;;7.03;79.44
84136;BME280;74238;50.566;7.262;2023-12-22T06:08:45;99749.34;;;6.82;79.12
84136;BME280;74238;50.566;7.262;2023-12-22T06:11:10;99773.63;;;6.97;78.06
84136;BME280;74238;50.566;7.262;2023-12-22T06:13:36;99814.44;;;7.19;78.57
84136;BME280;74238;50.566;7.262;2023-12-22T06:16:01;99789.19;;;7.12;78.06
84136;BME280;74238;50.566;7.262;2023-12-22T06:18:26;99811.75;;;7.25;77.45
84136;BME280;74238;50.566;7.262;2023-12-22T06:20:52;99701.34;;;6.73;75.12
84136;BME280;74238;50.566;7.262;2023-12-22T06:23:17;99801.16;;;7.31;77.43
84136;BME280;74238;50.566;7.262;2023-12-22T06:25:43;99801.16;;;7.33;77.84
84136;BME280;74238;50.566;7.262;2023-12-22T06:28:09;99800.25;;;7.32;77.83
84136;BME280;74238;50.566;7.262;2023-12-22T06:30:35;99794.28;;;7.23;77.96
84136;BME280;74238;50.566;7.262;2023-12-22T06:33:00;99802.00;;;7.33;78.15
84136;BME280;74238;50.566;7.262;2023-12-22T06:35:26;99804.78;;;7.23;77.55
84136;BME280;74238;50.566;7.262;2023-12-22T06:37:51;99829.06;;;7.39;78.09
84136;BME280;74238;50.566;7.262;2023-12-22T06:40:17;99837.78;;;7.41;78.78
84136;BME280;74238;50.566;7.262;2023-12-22T06:42:44;99824.69;;;7.38;78.97
84136;BME280;74238;50.566;7.262;2023-12-22T06:45:09;99831.72;;;7.37;79.51
84136;BME280;74238;50.566;7.262;2023-12-22T06:47:36;99837.81;;;7.38;79.24
84136;BME280;74238;50.566;7.262;2023-12-22T06:50:01;99828.19;;;7.38;79.20
84136;BME280;74238;50.566;7.262;2023-12-22T06:52:26;99823.88;;;7.36;79.17
84136;BME280;74238;50.566;7.262;2023-12-22T06:54:52;99829.13;;;7.32;79.27
84136;BME280;74238;50.566;7.262;2023-12-22T06:57:17;99786.59;;;7.09;78.67
84136;BME280;74238;50.566;7.262;2023-12-22T06:59:43;99821.44;;;7.20;79.35
84136;BME280;74238;50.566;7.262;2023-12-22T07:02:08;99806.84;;;6.99;79.34
84136;BME280;74238;50.566;7.262;2023-12-22T07:04:59;99835.38;;;7.25;78.89
84136;BME280;74238;50.566;7.262;2023-12-22T07:07:33;99839.31;;;6.92;79.74
84136;BME280;74238;50.566;7.262;2023-12-22T07:09:58;99816.66;;;6.83;80.45
84136;BME280;74238;50.566;7.262;2023-12-22T07:12:23;99862.13;;;6.85;81.91
84136;BME280;74238;50.566;7.262;2023-12-22T07:14:49;99842.44;;;6.46;82.37
84136;BME280;74238;50.566;7.262;2023-12-22T07:17:14;99874.56;;;6.66;82.63
84136;BME280;74238;50.566;7.262;2023-12-22T07:19:40;99821.75;;;6.17;82.57
84136;BME280;74238;50.566;7.262;2023-12-22T07:22:06;99842.75;;;6.14;83.73
84136;BME280;74238;50.566;7.262;2023-12-22T07:24:31;99875.88;;;6.21;84.87
84136;BME280;74238;50.566;7.262;2023-12-22T07:26:56;99893.44;;;6.11;85.24
84136;BME280;74238;50.566;7.262;2023-12-22T07:29:21;99826.41;;;5.78;85.63
84136;BME280;74238;50.566;7.262;2023-12-22T07:31:47;99836.84;;;5.83;86.26
84136;BME280;74238;50.566;7.262;2023-12-22T07:34:12;99856.97;;;5.77;86.45
84136;BME280;74238;50.566;7.262;2023-12-22T07:36:38;99878.72;;;5.86;86.55
84136;BME280;74238;50.566;7.262;2023-12-22T07:39:03;99825.69;;;5.56;86.55
84136;BME280;74238;50.566;7.262;2023-12-22T07:41:28;99863.03;;;5.84;86.18
84136;BME280;74238;50.566;7.262;2023-12-22T07:43:54;99823.94;;;5.60;86.40
84136;BME280;74238;50.566;7.262;2023-12-22T07:46:20;99803.97;;;5.46;86.12
84136;BME280;74238;50.566;7.262;2023-12-22T07:48:46;99870.94;;;5.81;86.41
84136;BME280;74238;50.566;7.262;2023-12-22T07:51:11;99806.56;;;5.45;86.39
84136;BME280;74238;50.566;7.262;2023-12-22T07:53:37;99863.88;;;5.86;86.25
84136;BME280;74238;50.566;7.262;2023-12-22T07:56:03;99833.47;;;5.68;86.10
84136;BME280;74238;50.566;7.262;2023-12-22T07:58:31;99802.13;;;5.56;86.62
84136;BME280;74238;50.566;7.262;2023-12-22T08:00:57;99816.00;;;5.69;86.08
84136;BME280;74238;50.566;7.262;2023-12-22T08:03:23;99839.47;;;5.83;86.67
84136;BME280;74238;50.566;7.262;2023-12-22T08:05:48;99861.25;;;5.89;86.19
84136;BME280;74238;50.566;7.262;2023-12-22T08:08:13;99852.50;;;5.89;86.24
84136;BME280;74238;50.566;7.262;2023-12-22T08:10:39;99859.47;;;5.91;86.06
84136;BME280;74238;50.566;7.262;2023-12-22T08:13:04;99846.50;;;5.79;87.04
84136;BME280;74238;50.566;7.262;2023-12-22T08:15:29;99857.75;;;5.92;86.04
84136;BME280;74238;50.566;7.262;2023-12-22T08:17:57;99857.69;;;5.99;86.46
84136;BME280;74238;50.566;7.262;2023-12-22T08:20:22;99802.03;;;5.67;87.21
84136;BME280;74238;50.566;7.262;2023-12-22T08:22:49;99828.00;;;5.99;87.13
84136;BME280;74238;50.566;7.262;2023-12-22T08:25:14;99850.50;;;6.28;86.54
84136;BME280;74238;50.566;7.262;2023-12-22T08:27:40;99802.53;;;6.15;86.54
84136;BME280;74238;50.566;7.262;2023-12-22T08:30:07;99851.94;;;6.56;86.13
84136;BME280;74238;50.566;7.262;2023-12-22T08:32:32;99796.22;;;6.34;85.96
84136;BME280;74238;50.566;7.262;2023-12-22T08:34:58;99803.13;;;6.43;85.62
84136;BME280;74238;50.566;7.262;2023-12-22T08:37:23;99825.59;;;6.67;85.36
84136;BME280;74238;50.566;7.262;2023-12-22T08:39:48;99867.31;;;6.88;85.25
84136;BME280;74238;50.566;7.262;2023-12-22T08:42:16;99804.75;;;6.55;85.11
84136;BME280;74238;50.566;7.262;2023-12-22T08:44:41;99868.09;;;6.97;85.29
84136;BME280;74238;50.566;7.262;2023-12-22T08:47:07;99832.47;;;6.79;85.48
84136;BME280;74238;50.566;7.262;2023-12-22T08:49:33;99874.97;;;7.08;84.71
84136;BME280;74238;50.566;7.262;2023-12-22T08:51:59;99863.63;;;7.05;84.90
84136;BME280;74238;50.566;7.262;2023-12-22T08:54:24;99808.78;;;6.83;84.58
84136;BME280;74238;50.566;7.262;2023-12-22T08:56:51;99826.09;;;6.98;83.89
84136;BME280;74238;50.566;7.262;2023-12-22T08:59:17;99862.56;;;7.21;83.88
84136;BME280;74238;50.566;7.262;2023-12-22T09:01:43;99779.97;;;6.82;84.18
84136;BME280;74238;50.566;7.262;2023-12-22T09:04:09;99856.28;;;7.31;83.98
84136;BME280;74238;50.566;7.262;2023-12-22T09:06:35;99819.88;;;7.07;83.67
84136;BME280;74238;50.566;7.262;2023-12-22T09:09:01;99848.38;;;7.35;83.69
84136;BME280;74238;50.566;7.262;2023-12-22T09:11:26;99844.78;;;7.42;83.75
84136;BME280;74238;50.566;7.262;2023-12-22T09:13:51;99813.53;;;7.23;83.73
84136;BME280;74238;50.566;7.262;2023-12-22T09:16:21;99844.69;;;7.48;83.75
84136;BME280;74238;50.566;7.262;2023-12-22T09:18:48;99849.91;;;7.51;82.91
84136;BME280;74238;50.566;7.262;2023-12-22T09:21:15;99849.84;;;7.54;83.57
84136;BME280;74238;50.566;7.262;2023-12-22T09:23:41;99831.66;;;7.40;82.44
84136;BME280;74238;50.566;7.262;2023-12-22T09:26:09;99862.88;;;7.63;83.46
84136;BME280;74238;50.566;7.262;2023-12-22T09:28:35;99840.03;;;7.65;83.05
84136;BME280;74238;50.566;7.262;2023-12-22T09:31:00;99837.41;;;7.68;83.29
84136;BME280;74238;50.566;7.262;2023-12-22T09:33:25;99783.53;;;7.40;82.81
84136;BME280;74238;50.566;7.262;2023-12-22T09:35:51;99838.16;;;7.76;82.04
84136;BME280;74238;50.566;7.262;2023-12-22T09:38:16;99834.66;;;7.74;82.49
84136;BME280;74238;50.566;7.262;2023-12-22T09:40:41;99814.72;;;7.63;82.45
84136;BME280;74238;50.566;7.262;2023-12-22T09:43:08;99822.34;;;7.78;82.19
84136;BME280;74238;50.566;7.262;2023-12-22T09:45:33;99819.50;;;7.92;81.66
84136;BME280;74238;50.566;7.262;2023-12-22T09:48:00;99805.41;;;7.96;81.53
84136;BME280;74238;50.566;7.262;2023-12-22T09:50:26;99803.59;;;8.01;80.85
84136;BME280;74238;50.566;7.262;2023-12-22T09:52:52;99813.13;;;8.07;80.89
84136;BME280;74238;50.566;7.262;2023-12-22T09:55:18;99794.84;;;7.99;79.86
84136;BME280;74238;50.566;7.262;2023-12-22T09:57:47;99736.66;;;7.69;80.00
84136;BME280;74238;50.566;7.262;2023-12-22T10:00:15;99811.16;;;8.18;80.17
84136;BME280;74238;50.566;7.262;2023-12-22T10:02:41;99812.88;;;8.20;79.43
84136;BME280;74238;50.566;7.262;2023-12-22T10:05:08;99811.97;;;8.21;80.31
84136;BME280;74238;50.566;7.262;2023-12-22T10:07:34;99810.53;;;8.04;80.06
84136;BME280;74238;50.566;7.262;2023-12-22T10:10:00;99751.06;;;7.98;80.07
84136;BME280;74238;50.566;7.262;2023-12-22T10:12:27;99813.53;;;8.32;79.27
84136;BME280;74238;50.566;7.262;2023-12-22T10:14:54;99770.06;;;8.12;79.18
84136;BME280;74238;50.566;7.262;2023-12-22T10:17:20;99776.94;;;8.19;79.93
84136;BME280;74238;50.566;7.262;2023-12-22T10:19:45;99795.91;;;8.40;79.13
84136;BME280;74238;50.566;7.262;2023-12-22T10:22:11;99775.03;;;8.28;80.54
84136;BME280;74238;50.566;7.262;2023-12-22T10:24:45;99779.22;;;8.38;80.27
84136;BME280;74238;50.566;7.262;2023-12-22T10:27:13;99768.75;;;8.36;80.32
84136;BME280;74238;50.566;7.262;2023-12-22T10:29:39;99757.53;;;8.27;80.44
84136;BME280;74238;50.566;7.262;2023-12-22T10:32:08;99714.94;;;8.09;80.95
84136;BME280;74238;50.566;7.262;2023-12-22T10:34:36;99734.78;;;8.26;80.49
84136;BME280;74238;50.566;7.262;2023-12-22T10:37:02;99753.97;;;8.31;80.85
84136;BME280;74238;50.566;7.262;2023-12-22T10:39:28;99727.88;;;8.20;80.04
84136;BME280;74238;50.566;7.262;2023-12-22T10:41:58;99764.34;;;8.40;79.90
84136;BME280;74238;50.566;7.262;2023-12-22T10:44:28;99733.88;;;8.27;80.29
84136;BME280;74238;50.566;7.262;2023-12-22T10:46:54;99765.13;;;8.43;80.03
84136;BME280;74238;50.566;7.262;2023-12-22T10:49:21;99758.16;;;8.41;80.56
84136;BME280;74238;50.566;7.262;2023-12-22T10:51:46;99677.59;;;7.90;80.63
84136;BME280;74238;50.566;7.262;2023-12-22T10:54:12;99737.47;;;8.23;81.04
84136;BME280;74238;50.566;7.262;2023-12-22T10:56:39;99741.56;;;8.36;81.73
84136;BME280;74238;50.566;7.262;2023-12-22T10:59:05;99722.50;;;8.25;82.05
84136;BME280;74238;50.566;7.262;2023-12-22T11:01:32;99617.69;;;7.63;82.38
84136;BME280;74238;50.566;7.262;2023-12-22T11:04:09;99650.75;;;7.74;81.57
84136;BME280;74238;50.566;7.262;2023-12-22T11:06:41;99688.84;;;7.97;82.54
84136;BME280;74238;50.566;7.262;2023-12-22T11:09:08;99759.25;;;8.28;83.12
84136;BME280;74238;50.566;7.262;2023-12-22T11:11:39;99754.06;;;8.25;83.81
84136;BME280;74238;50.566;7.262;2023-12-22T11:14:06;99748.91;;;8.18;85.66
84136;BME280;74238;50.566;7.262;2023-12-22T11:16:33;99734.97;;;8.15;85.35
84136;BME280;74238;50.566;7.262;2023-12-22T11:19:00;99736.75;;;8.14;85.43
84136;BME280;74238;50.566;7.262;2023-12-22T11:21:27;99735.00;;;8.13;85.74
84136;BME280;74238;50.566;7.262;2023-12-22T11:23:53;99679.66;;;7.74;85.58
84136;BME280;74238;50.566;7.262;2023-12-22T11:26:22;99721.84;;;8.15;85.93
84136;BME280;74238;50.566;7.262;2023-12-22T11:28:49;99723.53;;;8.17;84.68
84136;BME280;74238;50.566;7.262;2023-12-22T11:31:19;99703.38;;;8.16;85.50
84136;BME280;74238;50.566;7.262;2023-12-22T11:33:49;99709.28;;;8.28;85.84
84136;BME280;74238;50.566;7.262;2023-12-22T11:36:17;99696.13;;;8.28;84.66
84136;BME280;74238;50.566;7.262;2023-12-22T11:38:46;99686.41;;;8.33;84.57
84136;BME280;74238;50.566;7.262;2023-12-22T11:41:25;99651.41;;;8.31;84.57
84136;BME280;74238;50.566;7.262;2023-12-22T11:43:51;99647.75;;;8.39;84.07
84136;BME280;74238;50.566;7.262;2023-12-22T11:46:18;99696.13;;;8.73;83.37
84136;BME280;74238;50.566;7.262;2023-12-22T11:48:50;99687.16;;;8.81;83.97
84136;BME280;74238;50.566;7.262;2023-12-22T11:51:16;99687.94;;;8.86;84.17
84136;BME280;74238;50.566;7.262;2023-12-22T11:53:44;99679.88;;;8.93;83.29
84136;BME280;74238;50.566;7.262;2023-12-22T11:56:11;99672.81;;;8.96;82.70
84136;BME280;74238;50.566;7.262;2023-12-22T11:58:45;99657.13;;;8.90;83.04
84136;BME280;74238;50.566;7.262;2023-12-22T12:01:25;99668.22;;;9.04;83.40
84136;BME280;74238;50.566;7.262;2023-12-22T12:03:56;99667.22;;;9.10;83.94
84136;BME280;74238;50.566;7.262;2023-12-22T12:06:30;99564.28;;;8.46;82.79
84136;BME280;74238;50.566;7.262;2023-12-22T12:08:56;99611.91;;;8.73;82.56
84136;BME280;74238;50.566;7.262;2023-12-22T12:11:23;99671.47;;;9.14;82.52
84136;BME280;74238;50.566;7.262;2023-12-22T12:13:50;99681.84;;;9.22;81.74
84136;BME280;74238;50.566;7.262;2023-12-22T12:16:18;99689.72;;;9.23;81.71
84136;BME280;74238;50.566;7.262;2023-12-22T12:18:44;99700.13;;;9.28;83.04
84136;BME280;74238;50.566;7.262;2023-12-22T12:21:10;99679.00;;;9.31;82.01
84136;BME280;74238;50.566;7.262;2023-12-22T12:23:36;99690.34;;;9.33;81.87
84136;BME280;74238;50.566;7.262;2023-12-22T12:26:02;99695.63;;;9.33;81.84
84136;BME280;74238;50.566;7.262;2023-12-22T12:28:30;99696.59;;;9.29;83.13
84136;BME280;74238;50.566;7.262;2023-12-22T12:31:00;99687.94;;;9.24;82.87
84136;BME280;74238;50.566;7.262;2023-12-22T12:33:26;99691.63;;;9.17;83.47
84136;BME280;74238;50.566;7.262;2023-12-22T12:35:57;99689.06;;;9.14;83.69
84136;BME280;74238;50.566;7.262;2023-12-22T12:38:34;99675.22;;;9.05;85.23
84136;BME280;74238;50.566;7.262;2023-12-22T12:41:03;99669.22;;;8.99;85.12
84136;BME280;74238;50.566;7.262;2023-12-22T12:43:30;99644.09;;;8.84;84.91
84136;BME280;74238;50.566;7.262;2023-12-22T12:45:55;99677.84;;;9.05;85.34
84136;BME280;74238;50.566;7.262;2023-12-22T12:48:21;99691.88;;;9.06;85.73
84136;BME280;74238;50.566;7.262;2023-12-22T12:50:47;99661.53;;;8.90;84.71
84136;BME280;74238;50.566;7.262;2023-12-22T12:53:13;99653.75;;;8.85;84.64
84136;BME280;74238;50.566;7.262;2023-12-22T12:55:38;99678.63;;;9.09;84.97
84136;BME280;74238;50.566;7.262;2023-12-22T12:58:03;99680.03;;;9.24;84.53
84136;BME280;74238;50.566;7.262;2023-12-22T13:00:30;99673.84;;;9.26;83.51
84136;BME280;74238;50.566;7.262;2023-12-22T13:03:00;99647.78;;;9.14;84.30
84136;BME280;74238;50.566;7.262;2023-12-22T13:05:28;99642.75;;;9.05;83.49
84136;BME280;74238;50.566;7.262;2023-12-22T13:08:14;99670.09;;;9.35;82.85